Saturday, January 20, 2018, 10:00 AM EST
Back to Local

KSMQ, Somerville Somerset Airport

Location: Bedminster, NJ, United States Lat: 40.617
Local Time: 10:00 AM EST (15:00 GMT) Lon: -74.667
Time Zone: US/Eastern Elev: 104 ft

Show me the last for .
Show Coded

Time T Td Feel RH Dir Speed Gust Alt SLP Vis Weather Sky Remarks
2018-01-20 08:53 38 26 36 61 Variable 3 - 29.90 29.90 10 CLR None
2018-01-20 07:53 32 23 27 68 190° 5 - 29.88 29.89 10 CLR None
2018-01-20 06:53 29 21 - 71 - Calm - 29.88 29.88 10 CLR 6-hr Min Temp (7am): 19.9°F
6-hr Max Temp (7am): 28.9°F
2018-01-20 05:53 24 20 - 83 - Calm - 29.88 29.89 10 CLR None
2018-01-20 04:53 26 20 - 77 - Calm - 29.88 29.88 10 CLR None
2018-01-20 03:53 22 19 17 88 Variable 3 - 29.89 29.90 10 CLR None
2018-01-20 01:53 22 20 - 91 - Calm - 29.91 29.92 9 CLR None
2018-01-20 00:53 23 19 - 84 - Calm - 29.92 29.93 9 CLR 6-hr Min Temp (1am): 21.0°F
6-hr Max Temp (1am): 27.0°F
2018-01-19 23:53 21 20 - 95 - Calm - 29.93 29.94 8 CLR 24-hr Min Temp (12am): 9.0°F
24-hr Max Temp (12am): 37.9°F
2018-01-19 22:53 22 19 - 88 - Calm - 29.96 29.96 8 CLR None
2018-01-19 21:53 23 20 - 87 - Calm - 29.97 29.98 9 CLR None
2018-01-19 20:53 24 20 - 83 - Calm - 29.97 29.98 9 CLR None
2018-01-19 19:53 25 20 - 80 - Calm - 29.98 29.99 10 CLR None
2018-01-19 18:53 27 21 - 77 - Calm - 29.98 29.98 10 CLR 6-hr Min Temp (7pm): 27.0°F
6-hr Max Temp (7pm): 37.9°F
2018-01-19 17:53 30 20 - 65 - Calm - 29.98 29.98 10 CLR None
2018-01-19 16:53 37 19 34 47 Variable 3 - 29.98 29.99 10 CLR None
2018-01-19 15:53 37 20 - 49 - Calm - 29.97 29.98 10 CLR None
2018-01-19 14:53 37 19 33 47 Variable 5 - 29.97 29.97 10 CLR None
2018-01-19 13:53 38 19 - 46 - - - 29.99 29.99 10 CLR None
2018-01-19 12:53 35 17 30 47 Variable 6 - 30.00 30.01 10 CLR 6-hr Min Temp (1pm): 10.0°F
6-hr Max Temp (1pm): 35.1°F
2018-01-19 11:53 33 17 30 51 Variable 3 - 30.04 30.05 10 CLR None
2018-01-19 10:53 28 22 - 77 - Calm - 30.07 30.08 7 CLR None

Support USWX by starting your Amazon purchase here.